Latest Coastal Weather Observations for Pirlangimpi (Garden Point)

IDD60701

Issued at 7:31 am CST Friday 30 September 2016 (issued every 10 minutes, with the page automatically refreshed every 10 minutes)

About coastal observations | Map of coastal stations | Coastal observations for NT | Marine services | Other Formats
Station Details ID: 014142 Name: PIRLANGIMPI AIRPORT Lat: -11.40 Lon: 130.42 Height: 18.3 m
Data from the previous 72 hours. | See also: Recent months at Pirlangimpi (Garden Point)
Date/Time
CST
Temp
°C
Wind Pressure Rain since
9am
mm
Weather Cloud Vis
km
Sea
Height
m
Swell
Dir  Spd
kts
Gust
kts
hPa Trend Height
m
Period
s
Dir
30/07:30am 26.3 NE 1 3 1009.0 - 3.0 - - - - - - -
30/07:00am 25.0 NNE 1 2 1008.6 - 3.0 - - - - - - -
30/06:30am 24.6 NNE 2 3 1008.3 - 3.0 - - - - - - -
30/06:00am 24.6 NNE 1 2 1008.1 - 3.0 - - - - - - -
30/05:30am 24.9 CALM 0 1 1007.8 - 3.0 - - - - - - -
30/05:00am 24.9 NE 2 3 1007.7 - 3.0 - - - - - - -
30/04:30am 24.9 NNE 1 2 1007.5 - 3.0 - - - - - - -
30/04:00am 24.9 N 2 4 1007.5 - 3.0 - - - - - - -
30/03:30am 25.1 NNE 2 3 1007.7 - 3.0 - - - - - - -
30/03:00am 24.5 CALM 0 1 1007.9 - 3.0 - - - - - - -
30/02:30am 24.4 NE 1 1 1008.2 - 3.0 - - - - - - -
30/02:00am 24.6 CALM 0 0 1008.5 - 3.0 - - - - - - -
30/01:30am 24.7 CALM 0 0 1008.7 - 3.0 - - - - - - -
30/01:00am 24.7 CALM 0 0 1009.0 - 3.0 - - - - - - -
30/12:30am 24.6 NE 2 3 1009.5 - 3.0 - - - - - - -
30/12:00am 24.6 N 1 2 1009.8 - 3.0 - - - - - - -
 
Date/Time
CST
Temp
°C
Wind Pressure Rain since
9am
mm
Weather Cloud Vis
km
Sea
Height
m
Swell
Dir  Spd
kts
Gust
kts
hPa Trend Height
m
Period
s
Dir
29/11:30pm 24.6 CALM 0 0 1010.0 - 3.0 - - - - - - -
29/11:00pm 24.4 NE 2 3 1009.9 - 3.0 - - - - - - -
29/10:30pm 24.4 CALM 0 0 1009.9 - 3.0 - - - - - - -
29/10:00pm 24.6 CALM 0 0 1009.9 - 3.0 - - - - - - -
29/09:30pm 24.6 NNE 2 3 1009.5 - 3.0 - - - - - - -
29/09:00pm 24.7 NE 2 3 1009.5 - 3.0 - - - - - - -
29/08:30pm 25.1 CALM 0 1 1009.0 - 3.0 - - - - - - -
29/08:00pm 25.4 CALM 0 0 1008.6 - 3.0 - - - - - - -
29/07:30pm 26.0 SSW 1 3 1008.3 - 3.0 - - - - - - -
29/07:00pm 26.2 WSW 1 3 1007.8 - 3.0 - - - - - - -
29/06:30pm 26.4 W 1 3 1007.5 - 3.0 - - - - - - -
29/06:00pm 26.1 WNW 3 6 1007.4 - 3.0 - - - - - - -
29/05:30pm 26.5 W 3 7 1007.5 - 3.0 - - - - - - -
29/05:00pm 26.2 NNE 4 8 1007.0 - 3.0 - - - - - - -
29/04:30pm 24.2 NE 12 18 1007.0 - 2.8 - - - - - - -
29/04:00pm 29.1 E 7 10 1007.7 - 0.0 - - - - - - -
29/03:30pm 32.7 W 4 10 1006.6 - 0.0 - - - - - - -
29/03:00pm 32.9 WSW 4 10 1006.8 - 0.0 - - - - - - -
29/02:30pm 33.7 W 5 12 1007.2 - 0.0 - - - - - - -
29/02:00pm 33.5 WNW 5 8 1007.7 - 0.0 - - - - - - -
29/01:30pm 33.6 NW 4 9 1008.1 - 0.0 - - - - - - -
29/01:00pm 33.1 W 3 6 1008.8 - 0.0 - - - - - - -
29/12:30pm 32.2 SW 4 6 1009.3 - 0.0 - - - - - - -
29/12:00pm 31.9 SSW 3 7 1009.5 - 0.0 - - - - - - -
29/11:30am 31.4 S 2 5 1009.8 - 0.0 - - - - - - -
29/11:00am 30.9 SW 3 5 1010.2 - 0.0 - - - - - - -
29/10:30am 30.5 WNW 3 6 1010.3 - 0.0 - - - - - - -
29/10:00am 29.7 SSW 3 5 1010.5 - 0.0 - - - - - - -
29/09:30am 29.3 SSW 3 6 1010.6 - 0.0 - - - - - - -
29/09:00am 28.6 SSE 1 2 1010.3 - 0.0 - - - - - - -
29/08:30am 27.9 CALM 0 0 1009.9 - 0.0 - - - - - - -
29/08:00am 26.5 CALM 0 0 1009.6 - 0.0 - - - - - - -
29/07:30am 24.9 CALM 0 0 1009.0 - 0.0 - - - - - - -
29/07:00am 24.1 CALM 0 0 1008.6 - 0.0 - - - - - - -
29/06:30am 24.1 CALM 0 0 1008.4 - 0.0 - - - - - - -
29/06:00am 24.1 CALM 0 0 1008.2 - 0.0 - - - - - - -
29/05:30am 24.3 NE 1 3 1008.2 - 0.0 - - - - - - -
29/05:00am 24.5 CALM 0 0 1008.0 - 0.0 - - - - - - -
29/04:30am 24.3 NE 1 2 1007.9 - 0.0 - - - - - - -
29/04:00am 24.2 NE 2 3 1008.0 - 0.0 - - - - - - -
29/03:30am 24.3 CALM 0 0 1008.0 - 0.0 - - - - - - -
29/03:00am 24.6 NE 2 3 1008.3 - 0.0 - - - - - - -
29/02:30am 24.5 CALM 0 0 1008.5 - 0.0 - - - - - - -
29/02:00am 24.6 CALM 0 0 1008.9 - 0.0 - - - - - - -
29/01:30am 24.7 CALM 0 0 1009.3 - 0.0 - - - - - - -
29/01:00am 24.7 CALM 0 1 1009.6 - 0.0 - - - - - - -
29/12:30am 25.0 NE 1 2 1009.9 - 0.0 - - - - - - -
29/12:00am 25.2 CALM 0 0 1010.1 - 0.0 - - - - - - -
 
Date/Time
CST
Temp
°C
Wind Pressure Rain since
9am
mm
Weather Cloud Vis
km
Sea
Height
m
Swell
Dir  Spd
kts
Gust
kts
hPa Trend Height
m
Period
s
Dir
28/11:30pm 25.3 CALM 0 0 1010.4 - 0.0 - - - - - - -
28/11:00pm 25.4 CALM 0 0 1010.6 - 0.0 - - - - - - -
28/10:30pm 25.4 CALM 0 0 1010.6 - 0.0 - - - - - - -
28/10:00pm 26.1 CALM 0 0 1010.5 - 0.0 - - - - - - -
28/09:30pm 26.3 CALM 0 0 1010.2 - 0.0 - - - - - - -
28/09:00pm 26.2 CALM 0 0 1010.0 - 0.0 - - - - - - -
28/08:30pm 26.4 S 2 4 1009.7 - 0.0 - - - - - - -
28/08:00pm 26.7 CALM 0 0 1009.3 - 0.0 - - - - - - -
28/07:30pm 27.3 SSE 2 4 1008.8 - 0.0 - - - - - - -
28/07:00pm 28.7 SE 2 5 1008.5 - 0.0 - - - - - - -
28/06:30pm 30.1 WNW 2 3 1008.5 - 0.0 - - - - - - -
28/06:00pm 30.3 N 3 5 1008.1 - 0.0 - - - - - - -
28/05:30pm 30.9 NNW 3 7 1007.8 - 0.0 - - - - - - -
28/05:00pm 32.0 NW 5 8 1007.5 - 0.0 - - - - - - -
28/04:30pm 32.4 NNW 5 8 1007.2 - 0.0 - - - - - - -
28/04:00pm 32.6 NW 5 11 1007.7 - 0.0 - - - - - - -
28/03:30pm 33.0 NW 5 9 1007.8 - 0.0 - - - - - - -
28/03:00pm 32.4 NW 5 7 1008.1 - 0.0 - - - - - - -
28/02:30pm 33.4 WNW 4 8 1008.5 - 0.0 - - - - - - -
28/02:00pm 33.2 W 3 5 1009.1 - 0.0 - - - - - - -
28/01:30pm 31.9 NW 3 5 1009.6 - 0.0 - - - - - - -
28/01:00pm 32.4 WNW 4 7 1010.1 - 0.0 - - - - - - -
28/12:30pm 32.3 NW 5 7 1010.4 - 0.0 - - - - - - -
28/12:00pm 32.1 NW 4 7 1010.8 - 0.0 - - - - - - -
28/11:30am 31.0 W 4 6 1011.1 - 0.0 - - - - - - -
28/11:00am 30.7 WNW 3 5 1011.5 - 0.0 - - - - - - -
28/10:30am 30.3 W 3 5 1011.8 - 0.0 - - - - - - -
28/10:00am 29.9 N 3 5 1012.0 - 0.0 - - - - - - -
28/09:30am 30.1 ENE 2 4 1012.1 - 0.0 - - - - - - -
28/09:00am 29.1 N 2 4 1012.1 - 0.0 - - - - - - -
28/08:30am 28.3 NE 2 3 1012.0 - 0.0 - - - - - - -
28/08:00am 26.0 NE 2 3 1011.7 - 0.0 - - - - - - -
28/07:30am 24.8 NE 1 2 1011.2 - 0.0 - - - - - - -
28/07:00am 23.8 NNE 1 3 1010.8 - 0.0 - - - - - - -
28/06:30am 23.7 NE 1 3 1010.4 - 0.0 - - - - - - -
28/06:00am 23.6 NE 2 3 1010.1 - 0.0 - - - - - - -
28/05:30am 23.6 NE 1 2 1009.7 - 0.0 - - - - - - -
28/05:00am 23.8 NE 1 2 1009.2 - 0.0 - - - - - - -
28/04:30am 23.8 CALM 0 0 1009.0 - 0.0 - - - - - - -
28/04:00am 24.0 CALM 0 0 1009.1 - 0.0 - - - - - - -
28/03:30am 24.1 NE 1 2 1009.0 - 0.0 - - - - - - -
28/03:00am 24.6 CALM 0 0 1009.0 - 0.0 - - - - - - -
28/02:30am 24.7 CALM 0 0 1009.1 - 0.0 - - - - - - -
28/02:00am 24.8 CALM 0 0 1009.4 - 0.0 - - - - - - -
28/01:30am 24.7 CALM 0 0 1009.6 - 0.0 - - - - - - -
28/01:00am 24.6 CALM 0 0 1009.8 - 0.0 - - - - - - -
28/12:30am 24.6 CALM 0 0 1010.2 - 0.0 - - - - - - -
28/12:00am 24.6 CALM 0 0 1010.4 - 0.0 - - - - - - -
 
Date/Time
CST
Temp
°C
Wind Pressure Rain since
9am
mm
Weather Cloud Vis
km
Sea
Height
m
Swell
Dir  Spd
kts
Gust
kts
hPa Trend Height
m
Period
s
Dir
27/11:30pm 24.9 CALM 0 0 1010.7 - 0.0 - - - - - - -
27/11:00pm 25.2 CALM 0 0 1010.9 - 0.0 - - - - - - -
27/10:30pm 25.3 CALM 0 0 1010.8 - 0.0 - - - - - - -
27/10:00pm 25.6 CALM 0 0 1010.6 - 0.0 - - - - - - -
27/09:30pm 25.9 CALM 0 0 1010.3 - 0.0 - - - - - - -
27/09:00pm 26.1 CALM 0 0 1010.1 - 0.0 - - - - - - -
27/08:30pm 26.5 CALM 0 0 1009.9 - 0.0 - - - - - - -
27/08:00pm 27.1 CALM 0 0 1009.9 - 0.0 - - - - - - -
27/07:30pm 27.9 CALM 0 0 1009.8 - 0.0 - - - - - - -
27/07:00pm 28.8 NNE 1 2 1009.3 - 0.0 - - - - - - -
27/06:30pm 29.7 N 3 5 1008.9 - 0.0 - - - - - - -
27/06:00pm 29.9 NW 4 7 1008.6 - 0.0 - - - - - - -
27/05:30pm 30.4 NW 5 9 1008.2 - 0.0 - - - - - - -
27/05:00pm 31.0 NW 3 8 1008.2 - 0.0 - - - - - - -
27/04:30pm 31.2 WNW 4 11 1008.2 - 0.0 - - - - - - -
27/04:00pm 30.8 WNW 5 11 1008.5 - 0.0 - - - - - - -
27/03:30pm 32.3 NW 7 12 1008.3 - 0.0 - - - - - - -
27/03:00pm 32.6 NNW 7 13 1008.5 - 0.0 - - - - - - -
27/02:30pm 32.7 NW 6 12 1008.6 - 0.0 - - - - - - -
27/02:00pm 32.0 NNW 6 11 1009.0 - 0.0 - - - - - - -
27/01:30pm 32.3 NW 6 8 1009.6 - 0.0 - - - - - - -
27/01:00pm 32.1 SSW 5 7 1010.0 - 0.0 - - - - - - -
27/12:30pm 31.4 SW 6 8 1010.4 - 0.0 - - - - - - -
27/12:00pm 31.3 SW 4 6 1010.8 - 0.0 - - - - - - -
27/11:30am 31.1 SSW 5 8 1011.3 - 0.0 - - - - - - -
27/11:00am 30.8 SW 4 5 1011.8 - 0.0 - - - - - - -
27/10:30am 30.0 SW 4 6 1012.2 - 0.0 - - - - - - -
27/10:00am 29.4 SW 3 6 1012.3 - 0.0 - - - - - - -
27/09:30am 28.8 SW 4 5 1012.4 - 0.0 - - - - - - -
27/09:00am 28.5 SSE 2 3 1012.3 - 0.2 - - - - - - -
27/08:30am 27.9 SSE 2 3 1012.2 - 0.2 - - - - - - -
27/08:00am 26.6 CALM 0 0 1012.1 - 0.2 - - - - - - -

Other Formats:

Comma delimited format used in spreadsheet applications
http://www.bom.gov.au/fwo/IDD60701/IDD60701.94119.axf

JavaScript Object Notation format (JSON) in row-major order
http://www.bom.gov.au/fwo/IDD60701/IDD60701.94119.json